sensor_id;sensor_type;location;lat;lon;timestamp;temperature;humidity
67759;SHT31;54562;47.620;18.786;2022-12-18T00:00:12;-2.98;87.10
67759;SHT31;54562;47.620;18.786;2022-12-18T00:03:21;-3.01;87.06
67759;SHT31;54562;47.620;18.786;2022-12-18T00:06:29;-3.01;87.01
67759;SHT31;54562;47.620;18.786;2022-12-18T00:09:41;-3.04;86.94
67759;SHT31;54562;47.620;18.786;2022-12-18T00:12:50;-3.08;86.97
67759;SHT31;54562;47.620;18.786;2022-12-18T00:16:02;-3.08;87.02
67759;SHT31;54562;47.620;18.786;2022-12-18T00:19:14;-3.06;87.00
67759;SHT31;54562;47.620;18.786;2022-12-18T00:22:22;-3.06;86.99
67759;SHT31;54562;47.620;18.786;2022-12-18T00:25:30;-3.06;86.90
67759;SHT31;54562;47.620;18.786;2022-12-18T00:28:41;-3.06;86.93
67759;SHT31;54562;47.620;18.786;2022-12-18T00:31:50;-3.08;86.88
67759;SHT31;54562;47.620;18.786;2022-12-18T00:34:58;-3.10;86.81
67759;SHT31;54562;47.620;18.786;2022-12-18T00:38:06;-3.13;86.72
67759;SHT31;54562;47.620;18.786;2022-12-18T00:41:15;-3.14;86.76
67759;SHT31;54562;47.620;18.786;2022-12-18T00:44:37;-3.16;86.75
67759;SHT31;54562;47.620;18.786;2022-12-18T00:47:46;-3.19;86.67
67759;SHT31;54562;47.620;18.786;2022-12-18T00:50:55;-3.22;86.63
67759;SHT31;54562;47.620;18.786;2022-12-18T00:54:03;-3.22;86.71
67759;SHT31;54562;47.620;18.786;2022-12-18T00:57:11;-3.22;86.85
67759;SHT31;54562;47.620;18.786;2022-12-18T01:00:19;-3.21;86.92
67759;SHT31;54562;47.620;18.786;2022-12-18T01:03:28;-3.21;86.96
67759;SHT31;54562;47.620;18.786;2022-12-18T01:06:36;-3.20;87.17
67759;SHT31;54562;47.620;18.786;2022-12-18T01:09:44;-3.18;87.30
67759;SHT31;54562;47.620;18.786;2022-12-18T01:12:52;-3.19;87.22
67759;SHT31;54562;47.620;18.786;2022-12-18T01:16:00;-3.21;87.10
67759;SHT31;54562;47.620;18.786;2022-12-18T01:19:09;-3.23;87.10
67759;SHT31;54562;47.620;18.786;2022-12-18T01:22:18;-3.25;87.11
67759;SHT31;54562;47.620;18.786;2022-12-18T01:25:27;-3.25;87.19
67759;SHT31;54562;47.620;18.786;2022-12-18T01:28:35;-3.26;87.30
67759;SHT31;54562;47.620;18.786;2022-12-18T01:31:44;-3.27;87.30
67759;SHT31;54562;47.620;18.786;2022-12-18T01:34:52;-3.28;87.22
67759;SHT31;54562;47.620;18.786;2022-12-18T01:38:00;-3.31;87.13
67759;SHT31;54562;47.620;18.786;2022-12-18T01:41:09;-3.34;87.17
67759;SHT31;54562;47.620;18.786;2022-12-18T01:48:07;-3.47;87.30
67759;SHT31;54562;47.620;18.786;2022-12-18T01:51:16;-3.50;87.31
67759;SHT31;54562;47.620;18.786;2022-12-18T01:54:27;-3.55;87.31
67759;SHT31;54562;47.620;18.786;2022-12-18T01:57:36;-3.59;87.32
67759;SHT31;54562;47.620;18.786;2022-12-18T02:00:46;-3.61;87.38
67759;SHT31;54562;47.620;18.786;2022-12-18T02:03:54;-3.60;87.50
67759;SHT31;54562;47.620;18.786;2022-12-18T02:07:26;-3.59;87.57
67759;SHT31;54562;47.620;18.786;2022-12-18T02:10:48;-3.61;87.50
67759;SHT31;54562;47.620;18.786;2022-12-18T02:14:11;-3.63;87.57
67759;SHT31;54562;47.620;18.786;2022-12-18T02:17:34;-3.65;87.63
67759;SHT31;54562;47.620;18.786;2022-12-18T02:20:50;-3.65;87.72
67759;SHT31;54562;47.620;18.786;2022-12-18T02:24:17;-3.63;87.78
67759;SHT31;54562;47.620;18.786;2022-12-18T02:27:39;-3.64;87.77
67759;SHT31;54562;47.620;18.786;2022-12-18T02:30:51;-3.66;87.78
67759;SHT31;54562;47.620;18.786;2022-12-18T02:34:05;-3.66;87.80
67759;SHT31;54562;47.620;18.786;2022-12-18T02:37:17;-3.65;87.78
67759;SHT31;54562;47.620;18.786;2022-12-18T02:40:28;-3.66;87.80
67759;SHT31;54562;47.620;18.786;2022-12-18T02:43:37;-3.66;87.78
67759;SHT31;54562;47.620;18.786;2022-12-18T02:46:46;-3.71;87.57
67759;SHT31;54562;47.620;18.786;2022-12-18T02:50:02;-3.80;87.40
67759;SHT31;54562;47.620;18.786;2022-12-18T02:53:21;-3.88;87.47
67759;SHT31;54562;47.620;18.786;2022-12-18T02:56:39;-3.92;87.41
67759;SHT31;54562;47.620;18.786;2022-12-18T02:59:58;-3.95;87.44
67759;SHT31;54562;47.620;18.786;2022-12-18T03:03:14;-3.94;87.63
67759;SHT31;54562;47.620;18.786;2022-12-18T03:06:32;-3.90;87.70
67759;SHT31;54562;47.620;18.786;2022-12-18T03:09:46;-3.92;87.55
67759;SHT31;54562;47.620;18.786;2022-12-18T03:12:58;-3.98;87.43
67759;SHT31;54562;47.620;18.786;2022-12-18T03:16:12;-3.99;87.67
67759;SHT31;54562;47.620;18.786;2022-12-18T03:19:27;-3.97;87.80
67759;SHT31;54562;47.620;18.786;2022-12-18T03:22:39;-3.96;87.78
67759;SHT31;54562;47.620;18.786;2022-12-18T03:25:57;-3.96;87.74
67759;SHT31;54562;47.620;18.786;2022-12-18T03:29:14;-3.97;87.70
67759;SHT31;54562;47.620;18.786;2022-12-18T03:32:30;-3.98;87.70
67759;SHT31;54562;47.620;18.786;2022-12-18T03:35:45;-3.98;87.74
67759;SHT31;54562;47.620;18.786;2022-12-18T03:38:53;-3.98;87.80
67759;SHT31;54562;47.620;18.786;2022-12-18T03:42:06;-3.99;87.82
67759;SHT31;54562;47.620;18.786;2022-12-18T03:45:27;-3.99;87.88
67759;SHT31;54562;47.620;18.786;2022-12-18T03:48:40;-3.98;87.94
67759;SHT31;54562;47.620;18.786;2022-12-18T03:51:59;-3.97;87.99
67759;SHT31;54562;47.620;18.786;2022-12-18T03:55:12;-4.00;87.80
67759;SHT31;54562;47.620;18.786;2022-12-18T03:58:22;-4.05;87.69
67759;SHT31;54562;47.620;18.786;2022-12-18T04:01:33;-4.10;87.68
67759;SHT31;54562;47.620;18.786;2022-12-18T04:04:45;-4.13;87.66
67759;SHT31;54562;47.620;18.786;2022-12-18T04:07:59;-4.15;87.75
67759;SHT31;54562;47.620;18.786;2022-12-18T04:11:08;-4.20;87.59
67759;SHT31;54562;47.620;18.786;2022-12-18T04:14:16;-4.24;87.57
67759;SHT31;54562;47.620;18.786;2022-12-18T04:17:24;-4.25;87.75
67759;SHT31;54562;47.620;18.786;2022-12-18T04:20:32;-4.22;87.88
67759;SHT31;54562;47.620;18.786;2022-12-18T04:23:40;-4.17;87.98
67759;SHT31;54562;47.620;18.786;2022-12-18T04:26:48;-4.13;88.06
67759;SHT31;54562;47.620;18.786;2022-12-18T04:29:56;-4.14;87.82
67759;SHT31;54562;47.620;18.786;2022-12-18T04:33:05;-4.19;87.63
67759;SHT31;54562;47.620;18.786;2022-12-18T04:36:19;-4.24;87.55
67759;SHT31;54562;47.620;18.786;2022-12-18T04:39:30;-4.25;87.71
67759;SHT31;54562;47.620;18.786;2022-12-18T04:42:39;-4.24;87.82
67759;SHT31;54562;47.620;18.786;2022-12-18T04:48:57;-4.21;87.90
67759;SHT31;54562;47.620;18.786;2022-12-18T04:52:05;-4.20;87.91
67759;SHT31;54562;47.620;18.786;2022-12-18T04:55:13;-4.17;88.00
67759;SHT31;54562;47.620;18.786;2022-12-18T04:58:21;-4.15;88.03
67759;SHT31;54562;47.620;18.786;2022-12-18T05:01:29;-4.13;88.10
67759;SHT31;54562;47.620;18.786;2022-12-18T05:04:39;-4.12;88.07
67759;SHT31;54562;47.620;18.786;2022-12-18T05:07:48;-4.13;87.93
67759;SHT31;54562;47.620;18.786;2022-12-18T05:10:59;-4.13;87.95
67759;SHT31;54562;47.620;18.786;2022-12-18T05:14:09;-4.14;88.00
67759;SHT31;54562;47.620;18.786;2022-12-18T05:17:17;-4.14;88.03
67759;SHT31;54562;47.620;18.786;2022-12-18T05:20:26;-4.14;88.10
67759;SHT31;54562;47.620;18.786;2022-12-18T05:23:37;-4.14;88.10
67759;SHT31;54562;47.620;18.786;2022-12-18T05:26:46;-4.14;88.10
67759;SHT31;54562;47.620;18.786;2022-12-18T05:29:54;-4.16;88.10
67759;SHT31;54562;47.620;18.786;2022-12-18T05:33:02;-4.18;88.10
67759;SHT31;54562;47.620;18.786;2022-12-18T05:36:10;-4.19;88.10
67759;SHT31;54562;47.620;18.786;2022-12-18T05:39:19;-4.22;88.05
67759;SHT31;54562;47.620;18.786;2022-12-18T05:42:27;-4.24;87.87
67759;SHT31;54562;47.620;18.786;2022-12-18T05:45:37;-4.27;87.80
67759;SHT31;54562;47.620;18.786;2022-12-18T05:48:46;-4.27;87.81
67759;SHT31;54562;47.620;18.786;2022-12-18T05:51:55;-4.33;87.42
67759;SHT31;54562;47.620;18.786;2022-12-18T05:55:04;-4.37;87.32
67759;SHT31;54562;47.620;18.786;2022-12-18T05:58:13;-4.37;87.43
67759;SHT31;54562;47.620;18.786;2022-12-18T06:01:23;-4.35;87.68
67759;SHT31;54562;47.620;18.786;2022-12-18T06:04:32;-4.31;87.77
67759;SHT31;54562;47.620;18.786;2022-12-18T06:07:41;-4.28;87.84
67759;SHT31;54562;47.620;18.786;2022-12-18T06:10:51;-4.26;87.77
67759;SHT31;54562;47.620;18.786;2022-12-18T06:13:59;-4.29;87.54
67759;SHT31;54562;47.620;18.786;2022-12-18T06:17:08;-4.32;87.40
67759;SHT31;54562;47.620;18.786;2022-12-18T06:20:16;-4.35;87.49
67759;SHT31;54562;47.620;18.786;2022-12-18T06:23:24;-4.33;87.88
67759;SHT31;54562;47.620;18.786;2022-12-18T06:26:32;-4.31;87.98
67759;SHT31;54562;47.620;18.786;2022-12-18T06:29:43;-4.32;87.91
67759;SHT31;54562;47.620;18.786;2022-12-18T06:32:51;-4.35;87.90
67759;SHT31;54562;47.620;18.786;2022-12-18T06:36:01;-4.36;87.97
67759;SHT31;54562;47.620;18.786;2022-12-18T06:39:12;-4.34;88.02
67759;SHT31;54562;47.620;18.786;2022-12-18T06:42:21;-4.29;88.08
67759;SHT31;54562;47.620;18.786;2022-12-18T06:45:30;-4.26;88.00
67759;SHT31;54562;47.620;18.786;2022-12-18T06:48:38;-4.23;88.06
67759;SHT31;54562;47.620;18.786;2022-12-18T06:51:47;-4.21;88.08
67759;SHT31;54562;47.620;18.786;2022-12-18T06:54:55;-4.18;88.05
67759;SHT31;54562;47.620;18.786;2022-12-18T06:58:03;-4.20;87.79
67759;SHT31;54562;47.620;18.786;2022-12-18T07:01:13;-4.16;87.84
67759;SHT31;54562;47.620;18.786;2022-12-18T07:04:22;-4.11;88.02
67759;SHT31;54562;47.620;18.786;2022-12-18T07:07:34;-4.05;88.21
67759;SHT31;54562;47.620;18.786;2022-12-18T07:10:43;-3.99;88.26
67759;SHT31;54562;47.620;18.786;2022-12-18T07:13:59;-3.93;88.34
67759;SHT31;54562;47.620;18.786;2022-12-18T07:17:07;-3.87;88.25
67759;SHT31;54562;47.620;18.786;2022-12-18T07:20:15;-3.83;88.10
67759;SHT31;54562;47.620;18.786;2022-12-18T07:23:24;-3.82;87.89
67759;SHT31;54562;47.620;18.786;2022-12-18T07:26:32;-3.80;87.72
67759;SHT31;54562;47.620;18.786;2022-12-18T07:29:40;-3.80;87.43
67759;SHT31;54562;47.620;18.786;2022-12-18T07:32:48;-3.82;87.28
67759;SHT31;54562;47.620;18.786;2022-12-18T07:35:56;-3.79;87.49
67759;SHT31;54562;47.620;18.786;2022-12-18T07:39:07;-3.74;87.68
67759;SHT31;54562;47.620;18.786;2022-12-18T07:42:16;-3.67;87.80
67759;SHT31;54562;47.620;18.786;2022-12-18T07:45:36;-3.61;87.83
67759;SHT31;54562;47.620;18.786;2022-12-18T07:48:46;-3.56;87.85
67759;SHT31;54562;47.620;18.786;2022-12-18T07:51:55;-3.50;87.88
67759;SHT31;54562;47.620;18.786;2022-12-18T07:55:05;-3.45;87.90
67759;SHT31;54562;47.620;18.786;2022-12-18T07:58:15;-3.38;87.90
67759;SHT31;54562;47.620;18.786;2022-12-18T08:01:23;-3.32;87.88
67759;SHT31;54562;47.620;18.786;2022-12-18T08:04:31;-3.26;87.81
67759;SHT31;54562;47.620;18.786;2022-12-18T08:07:39;-3.18;87.75
67759;SHT31;54562;47.620;18.786;2022-12-18T08:10:47;-3.12;87.73
67759;SHT31;54562;47.620;18.786;2022-12-18T08:13:56;-3.04;87.80
67759;SHT31;54562;47.620;18.786;2022-12-18T08:17:04;-2.96;87.80
67759;SHT31;54562;47.620;18.786;2022-12-18T08:20:12;-2.90;87.71
67759;SHT31;54562;47.620;18.786;2022-12-18T08:23:21;-2.85;87.68
67759;SHT31;54562;47.620;18.786;2022-12-18T08:26:31;-2.78;87.70
67759;SHT31;54562;47.620;18.786;2022-12-18T08:29:39;-2.72;87.63
67759;SHT31;54562;47.620;18.786;2022-12-18T08:32:49;-2.65;87.60
67759;SHT31;54562;47.620;18.786;2022-12-18T08:36:00;-2.60;87.58
67759;SHT31;54562;47.620;18.786;2022-12-18T08:39:10;-2.55;87.50
67759;SHT31;54562;47.620;18.786;2022-12-18T08:42:18;-2.45;87.49
67759;SHT31;54562;47.620;18.786;2022-12-18T08:45:44;-2.35;87.40
67759;SHT31;54562;47.620;18.786;2022-12-18T08:48:52;-2.25;87.25
67759;SHT31;54562;47.620;18.786;2022-12-18T08:52:01;-2.12;87.22
67759;SHT31;54562;47.620;18.786;2022-12-18T08:55:10;-1.98;87.26
67759;SHT31;54562;47.620;18.786;2022-12-18T08:58:18;-1.82;87.25
67759;SHT31;54562;47.620;18.786;2022-12-18T09:01:27;-1.69;87.01
67759;SHT31;54562;47.620;18.786;2022-12-18T09:04:36;-1.56;86.82
67759;SHT31;54562;47.620;18.786;2022-12-18T09:07:49;-1.41;86.76
67759;SHT31;54562;47.620;18.786;2022-12-18T09:10:57;-1.27;86.62
67759;SHT31;54562;47.620;18.786;2022-12-18T09:14:05;-1.11;86.58
67759;SHT31;54562;47.620;18.786;2022-12-18T09:17:14;-0.95;86.44
67759;SHT31;54562;47.620;18.786;2022-12-18T09:20:22;-0.81;86.28
67759;SHT31;54562;47.620;18.786;2022-12-18T09:23:33;-0.65;86.29
67759;SHT31;54562;47.620;18.786;2022-12-18T09:26:42;-0.50;86.15
67759;SHT31;54562;47.620;18.786;2022-12-18T09:29:50;-0.37;85.96
67759;SHT31;54562;47.620;18.786;2022-12-18T09:32:59;-0.24;85.71
67759;SHT31;54562;47.620;18.786;2022-12-18T09:36:09;-0.15;85.31
67759;SHT31;54562;47.620;18.786;2022-12-18T09:39:21;-0.04;85.11
67759;SHT31;54562;47.620;18.786;2022-12-18T09:42:29;0.06;85.13
67759;SHT31;54562;47.620;18.786;2022-12-18T09:45:39;0.21;85.00
67759;SHT31;54562;47.620;18.786;2022-12-18T09:48:52;0.33;84.87
67759;SHT31;54562;47.620;18.786;2022-12-18T09:52:11;0.44;84.67
67759;SHT31;54562;47.620;18.786;2022-12-18T09:55:27;0.55;84.49
67759;SHT31;54562;47.620;18.786;2022-12-18T09:58:41;0.63;84.18
67759;SHT31;54562;47.620;18.786;2022-12-18T10:01:59;0.74;83.79
67759;SHT31;54562;47.620;18.786;2022-12-18T10:05:24;0.92;83.45
67759;SHT31;54562;47.620;18.786;2022-12-18T10:08:49;1.06;82.86
67759;SHT31;54562;47.620;18.786;2022-12-18T10:12:07;1.13;82.39
67759;SHT31;54562;47.620;18.786;2022-12-18T10:15:25;1.22;82.21
67759;SHT31;54562;47.620;18.786;2022-12-18T10:18:56;1.37;82.15
67759;SHT31;54562;47.620;18.786;2022-12-18T10:22:38;1.46;82.05
67759;SHT31;54562;47.620;18.786;2022-12-18T10:25:55;1.50;81.97
67759;SHT31;54562;47.620;18.786;2022-12-18T10:29:12;1.58;81.73
67759;SHT31;54562;47.620;18.786;2022-12-18T10:32:23;1.70;81.61
67759;SHT31;54562;47.620;18.786;2022-12-18T10:35:34;1.80;81.18
67759;SHT31;54562;47.620;18.786;2022-12-18T10:38:48;1.79;80.23
67759;SHT31;54562;47.620;18.786;2022-12-18T10:42:01;1.80;80.08
67759;SHT31;54562;47.620;18.786;2022-12-18T10:45:23;1.82;79.88
67759;SHT31;54562;47.620;18.786;2022-12-18T10:48:31;1.82;79.65
67759;SHT31;54562;47.620;18.786;2022-12-18T10:51:45;1.85;79.45
67759;SHT31;54562;47.620;18.786;2022-12-18T10:54:54;1.86;79.26
67759;SHT31;54562;47.620;18.786;2022-12-18T10:58:21;1.87;79.05
67759;SHT31;54562;47.620;18.786;2022-12-18T11:01:46;1.85;78.93
67759;SHT31;54562;47.620;18.786;2022-12-18T11:05:00;1.83;78.91
67759;SHT31;54562;47.620;18.786;2022-12-18T11:08:28;1.87;78.72
67759;SHT31;54562;47.620;18.786;2022-12-18T11:11:36;1.92;78.89
67759;SHT31;54562;47.620;18.786;2022-12-18T11:14:48;1.90;78.69
67759;SHT31;54562;47.620;18.786;2022-12-18T11:18:03;1.91;78.44
67759;SHT31;54562;47.620;18.786;2022-12-18T11:21:25;1.91;78.56
67759;SHT31;54562;47.620;18.786;2022-12-18T11:24:34;1.88;78.09
67759;SHT31;54562;47.620;18.786;2022-12-18T11:27:48;1.88;77.84
67759;SHT31;54562;47.620;18.786;2022-12-18T11:31:16;1.93;77.63
67759;SHT31;54562;47.620;18.786;2022-12-18T11:34:29;1.97;77.61
67759;SHT31;54562;47.620;18.786;2022-12-18T11:37:38;1.99;77.78
67759;SHT31;54562;47.620;18.786;2022-12-18T11:40:49;2.04;77.69
67759;SHT31;54562;47.620;18.786;2022-12-18T11:44:04;2.12;77.82
67759;SHT31;54562;47.620;18.786;2022-12-18T11:47:21;2.16;77.35
67759;SHT31;54562;47.620;18.786;2022-12-18T11:50:41;2.19;77.46
67759;SHT31;54562;47.620;18.786;2022-12-18T11:53:56;2.21;77.15
67759;SHT31;54562;47.620;18.786;2022-12-18T11:57:05;2.28;77.43
67759;SHT31;54562;47.620;18.786;2022-12-18T12:00:24;2.37;77.11
67759;SHT31;54562;47.620;18.786;2022-12-18T12:03:47;2.42;77.09
67759;SHT31;54562;47.620;18.786;2022-12-18T12:07:19;2.67;77.26
67759;SHT31;54562;47.620;18.786;2022-12-18T12:10:40;3.15;76.28
67759;SHT31;54562;47.620;18.786;2022-12-18T12:14:15;3.59;75.24
67759;SHT31;54562;47.620;18.786;2022-12-18T12:17:53;3.84;74.68
67759;SHT31;54562;47.620;18.786;2022-12-18T12:21:15;3.79;74.93
67759;SHT31;54562;47.620;18.786;2022-12-18T12:24:37;3.89;74.67
67759;SHT31;54562;47.620;18.786;2022-12-18T12:27:55;4.14;74.51
67759;SHT31;54562;47.620;18.786;2022-12-18T12:31:28;4.74;73.43
67759;SHT31;54562;47.620;18.786;2022-12-18T12:34:59;5.01;72.84
67759;SHT31;54562;47.620;18.786;2022-12-18T12:38:28;4.83;72.88
67759;SHT31;54562;47.620;18.786;2022-12-18T12:41:57;4.58;73.11
67759;SHT31;54562;47.620;18.786;2022-12-18T12:45:25;4.48;73.14
67759;SHT31;54562;47.620;18.786;2022-12-18T12:48:45;4.94;71.93
67759;SHT31;54562;47.620;18.786;2022-12-18T12:51:58;5.42;71.49
67759;SHT31;54562;47.620;18.786;2022-12-18T12:55:14;6.18;69.93
67759;SHT31;54562;47.620;18.786;2022-12-18T12:58:28;6.55;69.46
67759;SHT31;54562;47.620;18.786;2022-12-18T13:01:49;6.77;68.22
67759;SHT31;54562;47.620;18.786;2022-12-18T13:05:11;6.84;67.50
67759;SHT31;54562;47.620;18.786;2022-12-18T13:08:29;6.71;67.67
67759;SHT31;54562;47.620;18.786;2022-12-18T13:11:57;6.81;66.86
67759;SHT31;54562;47.620;18.786;2022-12-18T13:15:40;6.83;66.26
67759;SHT31;54562;47.620;18.786;2022-12-18T13:18:52;6.78;66.22
67759;SHT31;54562;47.620;18.786;2022-12-18T13:22:02;7.03;65.53
67759;SHT31;54562;47.620;18.786;2022-12-18T13:25:28;7.32;64.76
67759;SHT31;54562;47.620;18.786;2022-12-18T13:28:54;7.23;64.60
67759;SHT31;54562;47.620;18.786;2022-12-18T13:32:10;6.95;64.82
67759;SHT31;54562;47.620;18.786;2022-12-18T13:35:38;7.13;64.32
67759;SHT31;54562;47.620;18.786;2022-12-18T13:42:41;7.45;63.38
67759;SHT31;54562;47.620;18.786;2022-12-18T13:46:18;7.47;63.16
67759;SHT31;54562;47.620;18.786;2022-12-18T13:49:54;7.73;62.55
67759;SHT31;54562;47.620;18.786;2022-12-18T13:53:04;7.82;62.46
67759;SHT31;54562;47.620;18.786;2022-12-18T13:56:24;8.12;62.17
67759;SHT31;54562;47.620;18.786;2022-12-18T13:59:35;8.16;61.56
67759;SHT31;54562;47.620;18.786;2022-12-18T14:02:46;7.79;61.62
67759;SHT31;54562;47.620;18.786;2022-12-18T14:05:56;7.44;61.72
67759;SHT31;54562;47.620;18.786;2022-12-18T14:09:12;7.11;62.35
67759;SHT31;54562;47.620;18.786;2022-12-18T14:12:25;6.82;62.65
67759;SHT31;54562;47.620;18.786;2022-12-18T14:15:53;6.41;62.95
67759;SHT31;54562;47.620;18.786;2022-12-18T14:19:08;6.02;63.12
67759;SHT31;54562;47.620;18.786;2022-12-18T14:22:23;5.53;63.37
67759;SHT31;54562;47.620;18.786;2022-12-18T14:25:33;5.05;63.58
67759;SHT31;54562;47.620;18.786;2022-12-18T14:28:44;4.40;64.47
67759;SHT31;54562;47.620;18.786;2022-12-18T14:32:05;3.86;65.22
67759;SHT31;54562;47.620;18.786;2022-12-18T14:35:21;3.31;66.18
67759;SHT31;54562;47.620;18.786;2022-12-18T14:38:30;2.82;66.73
67759;SHT31;54562;47.620;18.786;2022-12-18T14:41:40;2.40;67.43
67759;SHT31;54562;47.620;18.786;2022-12-18T14:44:48;2.06;68.27
67759;SHT31;54562;47.620;18.786;2022-12-18T14:48:17;1.76;69.11
67759;SHT31;54562;47.620;18.786;2022-12-18T14:51:34;1.52;69.55
67759;SHT31;54562;47.620;18.786;2022-12-18T14:54:45;1.31;69.77
67759;SHT31;54562;47.620;18.786;2022-12-18T14:57:54;1.13;70.28
67759;SHT31;54562;47.620;18.786;2022-12-18T15:01:02;0.98;70.99
67759;SHT31;54562;47.620;18.786;2022-12-18T15:04:23;0.84;71.45
67759;SHT31;54562;47.620;18.786;2022-12-18T15:07:41;0.70;71.63
67759;SHT31;54562;47.620;18.786;2022-12-18T15:10:51;0.57;71.88
67759;SHT31;54562;47.620;18.786;2022-12-18T15:14:00;0.46;72.22
67759;SHT31;54562;47.620;18.786;2022-12-18T15:17:35;0.36;72.53
67759;SHT31;54562;47.620;18.786;2022-12-18T15:20:44;0.27;72.63
67759;SHT31;54562;47.620;18.786;2022-12-18T15:24:01;0.16;72.66
67759;SHT31;54562;47.620;18.786;2022-12-18T15:27:23;0.01;72.97
67759;SHT31;54562;47.620;18.786;2022-12-18T15:30:36;-0.05;73.72
67759;SHT31;54562;47.620;18.786;2022-12-18T15:33:47;-0.14;73.68
67759;SHT31;54562;47.620;18.786;2022-12-18T15:37:17;-0.22;74.39
67759;SHT31;54562;47.620;18.786;2022-12-18T15:40:25;-0.25;74.84
67759;SHT31;54562;47.620;18.786;2022-12-18T15:43:33;-0.30;74.85
67759;SHT31;54562;47.620;18.786;2022-12-18T15:46:45;-0.40;74.67
67759;SHT31;54562;47.620;18.786;2022-12-18T15:49:55;-0.48;75.04
67759;SHT31;54562;47.620;18.786;2022-12-18T15:53:03;-0.52;75.43
67759;SHT31;54562;47.620;18.786;2022-12-18T15:56:13;-0.59;75.16
67759;SHT31;54562;47.620;18.786;2022-12-18T15:59:40;-0.73;75.22
67759;SHT31;54562;47.620;18.786;2022-12-18T16:02:49;-0.86;75.31
67759;SHT31;54562;47.620;18.786;2022-12-18T16:05:57;-1.06;75.53
67759;SHT31;54562;47.620;18.786;2022-12-18T16:09:06;-1.22;75.87
67759;SHT31;54562;47.620;18.786;2022-12-18T16:12:16;-1.34;76.11
67759;SHT31;54562;47.620;18.786;2022-12-18T16:15:27;-1.45;76.44
67759;SHT31;54562;47.620;18.786;2022-12-18T16:18:35;-1.50;76.81
67759;SHT31;54562;47.620;18.786;2022-12-18T16:21:44;-1.57;77.03
67759;SHT31;54562;47.620;18.786;2022-12-18T16:24:55;-1.63;77.19
67759;SHT31;54562;47.620;18.786;2022-12-18T16:28:03;-1.65;77.47
67759;SHT31;54562;47.620;18.786;2022-12-18T16:31:11;-1.63;77.62
67759;SHT31;54562;47.620;18.786;2022-12-18T16:34:20;-1.61;77.82
67759;SHT31;54562;47.620;18.786;2022-12-18T16:37:31;-1.58;77.90
67759;SHT31;54562;47.620;18.786;2022-12-18T16:40:39;-1.58;77.92
67759;SHT31;54562;47.620;18.786;2022-12-18T16:44:02;-1.62;77.97
67759;SHT31;54562;47.620;18.786;2022-12-18T16:47:10;-1.67;78.07
67759;SHT31;54562;47.620;18.786;2022-12-18T16:50:18;-1.72;77.98
67759;SHT31;54562;47.620;18.786;2022-12-18T16:53:30;-1.82;77.97
67759;SHT31;54562;47.620;18.786;2022-12-18T16:56:38;-1.88;78.23
67759;SHT31;54562;47.620;18.786;2022-12-18T16:59:47;-1.90;78.34
67759;SHT31;54562;47.620;18.786;2022-12-18T17:02:56;-1.96;78.35
67759;SHT31;54562;47.620;18.786;2022-12-18T17:06:05;-2.01;78.55
67759;SHT31;54562;47.620;18.786;2022-12-18T17:09:14;-2.02;78.91
67759;SHT31;54562;47.620;18.786;2022-12-18T17:12:25;-2.01;78.96
67759;SHT31;54562;47.620;18.786;2022-12-18T17:15:35;-2.02;79.08
67759;SHT31;54562;47.620;18.786;2022-12-18T17:18:45;-2.09;79.08
67759;SHT31;54562;47.620;18.786;2022-12-18T17:25:22;-2.14;79.38
67759;SHT31;54562;47.620;18.786;2022-12-18T17:28:30;-2.23;79.43
67759;SHT31;54562;47.620;18.786;2022-12-18T17:31:38;-2.27;79.57
67759;SHT31;54562;47.620;18.786;2022-12-18T17:34:46;-2.29;79.53
67759;SHT31;54562;47.620;18.786;2022-12-18T17:37:55;-2.37;79.02
67759;SHT31;54562;47.620;18.786;2022-12-18T17:41:04;-2.40;79.07
67759;SHT31;54562;47.620;18.786;2022-12-18T17:44:14;-2.43;79.25
67759;SHT31;54562;47.620;18.786;2022-12-18T17:47:23;-2.42;79.51
67759;SHT31;54562;47.620;18.786;2022-12-18T17:50:32;-2.43;79.57
67759;SHT31;54562;47.620;18.786;2022-12-18T17:53:41;-2.43;79.63
67759;SHT31;54562;47.620;18.786;2022-12-18T17:56:49;-2.43;79.64
67759;SHT31;54562;47.620;18.786;2022-12-18T17:59:58;-2.44;79.85
67759;SHT31;54562;47.620;18.786;2022-12-18T18:03:07;-2.43;79.79
67759;SHT31;54562;47.620;18.786;2022-12-18T18:06:16;-2.42;79.86
67759;SHT31;54562;47.620;18.786;2022-12-18T18:09:24;-2.38;80.27
67759;SHT31;54562;47.620;18.786;2022-12-18T18:12:32;-2.36;80.34
67759;SHT31;54562;47.620;18.786;2022-12-18T18:15:59;-2.30;80.51
67759;SHT31;54562;47.620;18.786;2022-12-18T18:19:09;-2.28;80.41
67759;SHT31;54562;47.620;18.786;2022-12-18T18:22:19;-2.26;80.34
67759;SHT31;54562;47.620;18.786;2022-12-18T18:25:27;-2.23;80.28
67759;SHT31;54562;47.620;18.786;2022-12-18T18:28:39;-2.20;80.25
67759;SHT31;54562;47.620;18.786;2022-12-18T18:31:48;-2.19;79.93
67759;SHT31;54562;47.620;18.786;2022-12-18T18:34:56;-2.19;79.74
67759;SHT31;54562;47.620;18.786;2022-12-18T18:38:05;-2.19;79.82
67759;SHT31;54562;47.620;18.786;2022-12-18T18:41:13;-2.23;79.64
67759;SHT31;54562;47.620;18.786;2022-12-18T18:44:21;-2.26;79.63
67759;SHT31;54562;47.620;18.786;2022-12-18T18:47:32;-2.28;79.79
67759;SHT31;54562;47.620;18.786;2022-12-18T18:50:40;-2.31;79.64
67759;SHT31;54562;47.620;18.786;2022-12-18T18:53:49;-2.34;79.82
67759;SHT31;54562;47.620;18.786;2022-12-18T18:56:58;-2.37;80.08
67759;SHT31;54562;47.620;18.786;2022-12-18T19:00:22;-2.39;80.31
67759;SHT31;54562;47.620;18.786;2022-12-18T19:03:31;-2.43;80.36
67759;SHT31;54562;47.620;18.786;2022-12-18T19:06:41;-2.48;80.33
67759;SHT31;54562;47.620;18.786;2022-12-18T19:09:51;-2.50;80.68
67759;SHT31;54562;47.620;18.786;2022-12-18T19:13:01;-2.49;80.83
67759;SHT31;54562;47.620;18.786;2022-12-18T19:16:25;-2.55;80.42
67759;SHT31;54562;47.620;18.786;2022-12-18T19:19:34;-2.63;80.45
67759;SHT31;54562;47.620;18.786;2022-12-18T19:22:42;-2.67;80.53
67759;SHT31;54562;47.620;18.786;2022-12-18T19:25:59;-2.72;80.62
67759;SHT31;54562;47.620;18.786;2022-12-18T19:29:31;-2.78;80.72
67759;SHT31;54562;47.620;18.786;2022-12-18T19:32:39;-2.80;80.87
67759;SHT31;54562;47.620;18.786;2022-12-18T19:35:48;-2.79;80.97
67759;SHT31;54562;47.620;18.786;2022-12-18T19:38:57;-2.79;81.07
67759;SHT31;54562;47.620;18.786;2022-12-18T19:42:11;-2.80;81.07
67759;SHT31;54562;47.620;18.786;2022-12-18T19:45:26;-2.79;81.19
67759;SHT31;54562;47.620;18.786;2022-12-18T19:48:35;-2.78;81.12
67759;SHT31;54562;47.620;18.786;2022-12-18T19:51:44;-2.79;81.21
67759;SHT31;54562;47.620;18.786;2022-12-18T19:54:53;-2.78;81.32
67759;SHT31;54562;47.620;18.786;2022-12-18T19:58:01;-2.79;81.40
67759;SHT31;54562;47.620;18.786;2022-12-18T20:01:12;-2.84;81.31
67759;SHT31;54562;47.620;18.786;2022-12-18T20:04:22;-2.89;81.35
67759;SHT31;54562;47.620;18.786;2022-12-18T20:07:30;-2.92;81.46
67759;SHT31;54562;47.620;18.786;2022-12-18T20:10:38;-2.95;81.53
67759;SHT31;54562;47.620;18.786;2022-12-18T20:13:51;-2.95;81.62
67759;SHT31;54562;47.620;18.786;2022-12-18T20:16:59;-2.92;81.77